sensor_id;sensor_type;location;lat;lon;timestamp;temperature;humidity
30280;DHT22;17097;50.916;5.344;2024-01-10T00:01:36;-1.30;99.90
30280;DHT22;17097;50.916;5.344;2024-01-10T00:04:02;-1.30;99.90
30280;DHT22;17097;50.916;5.344;2024-01-10T00:06:28;-1.30;99.90
30280;DHT22;17097;50.916;5.344;2024-01-10T00:08:53;-1.20;99.90
30280;DHT22;17097;50.916;5.344;2024-01-10T00:11:19;-1.40;99.90
30280;DHT22;17097;50.916;5.344;2024-01-10T00:13:45;-1.40;99.90
30280;DHT22;17097;50.916;5.344;2024-01-10T00:16:15;-1.50;99.90
30280;DHT22;17097;50.916;5.344;2024-01-10T00:18:40;-1.40;99.90
30280;DHT22;17097;50.916;5.344;2024-01-10T00:21:07;-1.50;99.90
30280;DHT22;17097;50.916;5.344;2024-01-10T00:23:35;-1.50;99.90
30280;DHT22;17097;50.916;5.344;2024-01-10T00:26:00;-1.50;99.90
30280;DHT22;17097;50.916;5.344;2024-01-10T00:28:26;-1.50;99.90
30280;DHT22;17097;50.916;5.344;2024-01-10T00:30:52;-1.50;99.90
30280;DHT22;17097;50.916;5.344;2024-01-10T00:33:18;-1.50;99.90
30280;DHT22;17097;50.916;5.344;2024-01-10T00:35:43;-1.40;99.90
30280;DHT22;17097;50.916;5.344;2024-01-10T00:38:09;-1.50;99.90
30280;DHT22;17097;50.916;5.344;2024-01-10T00:40:35;-1.60;99.90
30280;DHT22;17097;50.916;5.344;2024-01-10T00:43:02;-1.70;99.90
30280;DHT22;17097;50.916;5.344;2024-01-10T00:45:28;-1.60;99.90
30280;DHT22;17097;50.916;5.344;2024-01-10T00:47:53;-1.60;99.90
30280;DHT22;17097;50.916;5.344;2024-01-10T00:50:19;-1.70;99.90
30280;DHT22;17097;50.916;5.344;2024-01-10T00:52:45;-1.60;99.90
30280;DHT22;17097;50.916;5.344;2024-01-10T00:55:13;-1.60;99.90
30280;DHT22;17097;50.916;5.344;2024-01-10T00:57:39;-1.60;99.90
30280;DHT22;17097;50.916;5.344;2024-01-10T01:00:09;-1.60;99.90
30280;DHT22;17097;50.916;5.344;2024-01-10T01:02:36;-1.70;99.90
30280;DHT22;17097;50.916;5.344;2024-01-10T01:05:05;-1.70;99.90
30280;DHT22;17097;50.916;5.344;2024-01-10T01:07:30;-1.60;99.90
30280;DHT22;17097;50.916;5.344;2024-01-10T01:09:58;-1.60;99.90
30280;DHT22;17097;50.916;5.344;2024-01-10T01:12:27;-1.70;99.90
30280;DHT22;17097;50.916;5.344;2024-01-10T01:14:55;-1.80;99.90
30280;DHT22;17097;50.916;5.344;2024-01-10T01:17:20;-1.80;99.90
30280;DHT22;17097;50.916;5.344;2024-01-10T01:19:46;-1.80;99.90
30280;DHT22;17097;50.916;5.344;2024-01-10T01:22:14;-1.80;99.90
30280;DHT22;17097;50.916;5.344;2024-01-10T01:24:42;-1.80;99.90
30280;DHT22;17097;50.916;5.344;2024-01-10T01:27:09;-1.80;99.90
30280;DHT22;17097;50.916;5.344;2024-01-10T01:29:34;-1.80;99.90
30280;DHT22;17097;50.916;5.344;2024-01-10T01:32:02;-1.70;99.90
30280;DHT22;17097;50.916;5.344;2024-01-10T01:34:31;-1.90;99.90
30280;DHT22;17097;50.916;5.344;2024-01-10T01:36:57;-1.90;99.90
30280;DHT22;17097;50.916;5.344;2024-01-10T01:39:23;-1.80;99.90
30280;DHT22;17097;50.916;5.344;2024-01-10T01:41:48;-1.90;99.90
30280;DHT22;17097;50.916;5.344;2024-01-10T01:44:14;-2.00;99.90
30280;DHT22;17097;50.916;5.344;2024-01-10T01:46:39;-2.00;99.90
30280;DHT22;17097;50.916;5.344;2024-01-10T01:49:13;-2.00;99.90
30280;DHT22;17097;50.916;5.344;2024-01-10T01:51:39;-2.00;99.90
30280;DHT22;17097;50.916;5.344;2024-01-10T01:54:07;-2.00;99.90
30280;DHT22;17097;50.916;5.344;2024-01-10T01:56:36;-2.00;99.90
30280;DHT22;17097;50.916;5.344;2024-01-10T01:59:07;-2.00;99.90
30280;DHT22;17097;50.916;5.344;2024-01-10T02:01:36;-2.10;99.90
30280;DHT22;17097;50.916;5.344;2024-01-10T02:04:02;-2.00;99.90
30280;DHT22;17097;50.916;5.344;2024-01-10T02:06:31;-2.10;99.90
30280;DHT22;17097;50.916;5.344;2024-01-10T02:08:59;-2.10;99.90
30280;DHT22;17097;50.916;5.344;2024-01-10T02:11:26;-2.10;99.90
30280;DHT22;17097;50.916;5.344;2024-01-10T02:13:52;-2.10;99.90
30280;DHT22;17097;50.916;5.344;2024-01-10T02:16:19;-2.10;99.90
30280;DHT22;17097;50.916;5.344;2024-01-10T02:18:46;-2.00;99.90
30280;DHT22;17097;50.916;5.344;2024-01-10T02:21:11;-2.10;99.90
30280;DHT22;17097;50.916;5.344;2024-01-10T02:23:37;-2.10;99.90
30280;DHT22;17097;50.916;5.344;2024-01-10T02:26:03;-2.10;99.90
30280;DHT22;17097;50.916;5.344;2024-01-10T02:28:28;-2.10;99.90
30280;DHT22;17097;50.916;5.344;2024-01-10T02:30:55;-2.10;99.90
30280;DHT22;17097;50.916;5.344;2024-01-10T02:33:21;-2.00;99.90
30280;DHT22;17097;50.916;5.344;2024-01-10T02:35:49;-2.00;99.90
30280;DHT22;17097;50.916;5.344;2024-01-10T02:38:15;-2.00;99.90
30280;DHT22;17097;50.916;5.344;2024-01-10T02:40:43;-2.00;99.90
30280;DHT22;17097;50.916;5.344;2024-01-10T02:43:08;-2.00;99.90
30280;DHT22;17097;50.916;5.344;2024-01-10T02:45:35;-2.00;99.90
30280;DHT22;17097;50.916;5.344;2024-01-10T02:48:03;-2.00;99.90
30280;DHT22;17097;50.916;5.344;2024-01-10T02:50:29;-2.00;99.90
30280;DHT22;17097;50.916;5.344;2024-01-10T02:52:59;-2.00;99.90
30280;DHT22;17097;50.916;5.344;2024-01-10T02:55:25;-2.00;99.90
30280;DHT22;17097;50.916;5.344;2024-01-10T02:57:52;-2.00;99.90
30280;DHT22;17097;50.916;5.344;2024-01-10T03:00:18;-2.20;99.90
30280;DHT22;17097;50.916;5.344;2024-01-10T03:02:46;-2.30;99.90
30280;DHT22;17097;50.916;5.344;2024-01-10T03:05:14;-2.20;99.90
30280;DHT22;17097;50.916;5.344;2024-01-10T03:07:40;-2.30;99.90
30280;DHT22;17097;50.916;5.344;2024-01-10T03:10:06;-2.20;99.90
30280;DHT22;17097;50.916;5.344;2024-01-10T03:12:31;-2.20;99.90
30280;DHT22;17097;50.916;5.344;2024-01-10T03:14:57;-2.10;99.90
30280;DHT22;17097;50.916;5.344;2024-01-10T03:17:25;-2.20;99.90
30280;DHT22;17097;50.916;5.344;2024-01-10T03:19:50;-2.30;99.90
30280;DHT22;17097;50.916;5.344;2024-01-10T03:22:16;-2.40;99.90
30280;DHT22;17097;50.916;5.344;2024-01-10T03:24:42;-2.30;99.90
30280;DHT22;17097;50.916;5.344;2024-01-10T03:27:08;-2.30;99.90
30280;DHT22;17097;50.916;5.344;2024-01-10T03:29:35;-2.30;99.90
30280;DHT22;17097;50.916;5.344;2024-01-10T03:32:01;-2.30;99.90
30280;DHT22;17097;50.916;5.344;2024-01-10T03:34:27;-2.30;99.90
30280;DHT22;17097;50.916;5.344;2024-01-10T03:36:52;-2.30;99.90
30280;DHT22;17097;50.916;5.344;2024-01-10T03:39:18;-2.30;99.90
30280;DHT22;17097;50.916;5.344;2024-01-10T03:41:46;-2.30;99.90
30280;DHT22;17097;50.916;5.344;2024-01-10T03:44:13;-2.20;99.90
30280;DHT22;17097;50.916;5.344;2024-01-10T03:46:39;-2.20;99.90
30280;DHT22;17097;50.916;5.344;2024-01-10T03:49:05;-2.30;99.90
30280;DHT22;17097;50.916;5.344;2024-01-10T03:51:30;-2.30;99.90
30280;DHT22;17097;50.916;5.344;2024-01-10T03:54:01;-2.40;99.90
30280;DHT22;17097;50.916;5.344;2024-01-10T03:56:26;-2.40;99.90
30280;DHT22;17097;50.916;5.344;2024-01-10T03:58:52;-2.40;99.90
30280;DHT22;17097;50.916;5.344;2024-01-10T04:01:22;-2.40;99.90
30280;DHT22;17097;50.916;5.344;2024-01-10T04:03:47;-2.40;99.90
30280;DHT22;17097;50.916;5.344;2024-01-10T04:06:13;-2.30;99.90
30280;DHT22;17097;50.916;5.344;2024-01-10T04:08:41;-2.30;99.90
30280;DHT22;17097;50.916;5.344;2024-01-10T04:11:11;-2.30;99.90
30280;DHT22;17097;50.916;5.344;2024-01-10T04:13:37;-2.30;99.90
30280;DHT22;17097;50.916;5.344;2024-01-10T04:16:03;-2.40;99.90
30280;DHT22;17097;50.916;5.344;2024-01-10T04:18:31;-2.40;99.90
30280;DHT22;17097;50.916;5.344;2024-01-10T04:20:56;-2.40;99.90
30280;DHT22;17097;50.916;5.344;2024-01-10T04:23:22;-2.50;99.90
30280;DHT22;17097;50.916;5.344;2024-01-10T04:25:48;-2.30;99.90
30280;DHT22;17097;50.916;5.344;2024-01-10T04:28:14;-2.20;99.90
30280;DHT22;17097;50.916;5.344;2024-01-10T04:30:42;-2.20;99.90
30280;DHT22;17097;50.916;5.344;2024-01-10T04:33:07;-2.20;99.90
30280;DHT22;17097;50.916;5.344;2024-01-10T04:35:35;-2.20;99.90
30280;DHT22;17097;50.916;5.344;2024-01-10T04:38:05;-2.20;99.90
30280;DHT22;17097;50.916;5.344;2024-01-10T04:40:31;-2.30;99.90
30280;DHT22;17097;50.916;5.344;2024-01-10T04:42:57;-2.40;99.90
30280;DHT22;17097;50.916;5.344;2024-01-10T04:45:23;-2.40;99.90
30280;DHT22;17097;50.916;5.344;2024-01-10T04:47:48;-2.40;99.90
30280;DHT22;17097;50.916;5.344;2024-01-10T04:50:16;-2.40;99.90
30280;DHT22;17097;50.916;5.344;2024-01-10T04:52:44;-2.40;99.90
30280;DHT22;17097;50.916;5.344;2024-01-10T04:55:10;-2.40;99.90
30280;DHT22;17097;50.916;5.344;2024-01-10T04:57:38;-2.40;99.90
30280;DHT22;17097;50.916;5.344;2024-01-10T05:00:04;-2.30;99.90
30280;DHT22;17097;50.916;5.344;2024-01-10T05:02:30;-2.30;99.90
30280;DHT22;17097;50.916;5.344;2024-01-10T05:04:58;-2.30;99.90
30280;DHT22;17097;50.916;5.344;2024-01-10T05:07:26;-2.30;99.90
30280;DHT22;17097;50.916;5.344;2024-01-10T05:09:52;-2.30;99.90
30280;DHT22;17097;50.916;5.344;2024-01-10T05:12:17;-2.20;99.90
30280;DHT22;17097;50.916;5.344;2024-01-10T05:14:43;-2.30;99.90
30280;DHT22;17097;50.916;5.344;2024-01-10T05:17:08;-2.30;99.90
30280;DHT22;17097;50.916;5.344;2024-01-10T05:19:34;-2.30;99.90
30280;DHT22;17097;50.916;5.344;2024-01-10T05:22:00;-2.20;99.90
30280;DHT22;17097;50.916;5.344;2024-01-10T05:24:25;-2.20;99.90
30280;DHT22;17097;50.916;5.344;2024-01-10T05:26:51;-2.40;99.90
30280;DHT22;17097;50.916;5.344;2024-01-10T05:29:17;-2.40;99.90
30280;DHT22;17097;50.916;5.344;2024-01-10T05:31:45;-2.40;99.90
30280;DHT22;17097;50.916;5.344;2024-01-10T05:34:11;-2.30;99.90
30280;DHT22;17097;50.916;5.344;2024-01-10T05:36:37;-2.30;99.90
30280;DHT22;17097;50.916;5.344;2024-01-10T05:39:03;-2.30;99.90
30280;DHT22;17097;50.916;5.344;2024-01-10T05:41:31;-2.30;99.90
30280;DHT22;17097;50.916;5.344;2024-01-10T05:43:58;-2.40;99.90
30280;DHT22;17097;50.916;5.344;2024-01-10T05:46:24;-2.50;99.90
30280;DHT22;17097;50.916;5.344;2024-01-10T05:48:50;-2.50;99.90
30280;DHT22;17097;50.916;5.344;2024-01-10T05:51:15;-2.50;99.90
30280;DHT22;17097;50.916;5.344;2024-01-10T05:53:41;-2.50;99.90
30280;DHT22;17097;50.916;5.344;2024-01-10T05:56:09;-2.60;99.90
30280;DHT22;17097;50.916;5.344;2024-01-10T05:58:37;-2.50;99.90
30280;DHT22;17097;50.916;5.344;2024-01-10T06:01:03;-2.40;99.90
30280;DHT22;17097;50.916;5.344;2024-01-10T06:03:35;-2.40;99.90
30280;DHT22;17097;50.916;5.344;2024-01-10T06:06:04;-2.50;99.90
30280;DHT22;17097;50.916;5.344;2024-01-10T06:08:30;-2.60;99.90
30280;DHT22;17097;50.916;5.344;2024-01-10T06:10:56;-2.60;99.90
30280;DHT22;17097;50.916;5.344;2024-01-10T06:13:22;-2.60;99.90
30280;DHT22;17097;50.916;5.344;2024-01-10T06:15:47;-2.40;99.90
30280;DHT22;17097;50.916;5.344;2024-01-10T06:18:13;-2.50;99.90
30280;DHT22;17097;50.916;5.344;2024-01-10T06:20:39;-2.40;99.90
30280;DHT22;17097;50.916;5.344;2024-01-10T06:23:04;-2.40;99.90
30280;DHT22;17097;50.916;5.344;2024-01-10T06:25:30;-2.30;99.90
30280;DHT22;17097;50.916;5.344;2024-01-10T06:27:56;-2.50;99.90
30280;DHT22;17097;50.916;5.344;2024-01-10T06:30:22;-2.40;99.90
30280;DHT22;17097;50.916;5.344;2024-01-10T06:32:47;-2.40;99.90
30280;DHT22;17097;50.916;5.344;2024-01-10T06:35:13;-2.30;99.90
30280;DHT22;17097;50.916;5.344;2024-01-10T06:37:40;-2.30;99.90
30280;DHT22;17097;50.916;5.344;2024-01-10T06:40:10;-2.30;99.90
30280;DHT22;17097;50.916;5.344;2024-01-10T06:42:35;-2.40;99.90
30280;DHT22;17097;50.916;5.344;2024-01-10T06:45:02;-2.50;99.90
30280;DHT22;17097;50.916;5.344;2024-01-10T06:47:29;-2.50;99.90
30280;DHT22;17097;50.916;5.344;2024-01-10T06:49:57;-2.60;99.90
30280;DHT22;17097;50.916;5.344;2024-01-10T06:52:24;-2.40;99.90
30280;DHT22;17097;50.916;5.344;2024-01-10T06:54:50;-2.50;99.90
30280;DHT22;17097;50.916;5.344;2024-01-10T06:57:18;-2.50;99.90
30280;DHT22;17097;50.916;5.344;2024-01-10T06:59:44;-2.30;99.90
30280;DHT22;17097;50.916;5.344;2024-01-10T07:02:12;-2.50;99.90
30280;DHT22;17097;50.916;5.344;2024-01-10T07:04:38;-2.50;99.90
30280;DHT22;17097;50.916;5.344;2024-01-10T07:07:04;-2.50;99.90
30280;DHT22;17097;50.916;5.344;2024-01-10T07:09:31;-2.40;99.90
30280;DHT22;17097;50.916;5.344;2024-01-10T07:11:57;-2.40;99.90
30280;DHT22;17097;50.916;5.344;2024-01-10T07:14:25;-2.30;99.90
30280;DHT22;17097;50.916;5.344;2024-01-10T07:16:51;-2.30;99.90
30280;DHT22;17097;50.916;5.344;2024-01-10T07:19:17;-2.30;99.90
30280;DHT22;17097;50.916;5.344;2024-01-10T07:21:43;-2.40;99.90
30280;DHT22;17097;50.916;5.344;2024-01-10T07:24:11;-2.50;99.90
30280;DHT22;17097;50.916;5.344;2024-01-10T07:26:39;-2.60;99.90
30280;DHT22;17097;50.916;5.344;2024-01-10T07:29:05;-2.50;99.90
30280;DHT22;17097;50.916;5.344;2024-01-10T07:31:36;-2.50;99.90
30280;DHT22;17097;50.916;5.344;2024-01-10T07:34:02;-2.50;99.90
30280;DHT22;17097;50.916;5.344;2024-01-10T07:36:31;-2.50;99.90
30280;DHT22;17097;50.916;5.344;2024-01-10T07:38:59;-2.50;99.90
30280;DHT22;17097;50.916;5.344;2024-01-10T07:41:25;-2.60;99.90
30280;DHT22;17097;50.916;5.344;2024-01-10T07:43:51;-2.60;99.90
30280;DHT22;17097;50.916;5.344;2024-01-10T07:46:17;-2.60;99.90
30280;DHT22;17097;50.916;5.344;2024-01-10T07:48:43;-2.60;99.90
30280;DHT22;17097;50.916;5.344;2024-01-10T07:51:08;-2.60;99.90
30280;DHT22;17097;50.916;5.344;2024-01-10T07:53:35;-2.60;99.90
30280;DHT22;17097;50.916;5.344;2024-01-10T07:56:01;-2.50;99.90
30280;DHT22;17097;50.916;5.344;2024-01-10T07:58:27;-2.50;99.90
30280;DHT22;17097;50.916;5.344;2024-01-10T08:00:53;-2.50;99.90
30280;DHT22;17097;50.916;5.344;2024-01-10T08:03:22;-2.50;99.90
30280;DHT22;17097;50.916;5.344;2024-01-10T08:05:48;-2.40;99.90
30280;DHT22;17097;50.916;5.344;2024-01-10T08:08:13;-2.30;99.90
30280;DHT22;17097;50.916;5.344;2024-01-10T08:10:39;-2.20;99.90
30280;DHT22;17097;50.916;5.344;2024-01-10T08:13:05;-2.20;99.90
30280;DHT22;17097;50.916;5.344;2024-01-10T08:15:31;-2.20;99.90
30280;DHT22;17097;50.916;5.344;2024-01-10T08:18:02;-2.10;99.90
30280;DHT22;17097;50.916;5.344;2024-01-10T08:20:28;-2.00;99.90
30280;DHT22;17097;50.916;5.344;2024-01-10T08:22:54;-2.00;99.90
30280;DHT22;17097;50.916;5.344;2024-01-10T08:25:20;-1.80;99.90
30280;DHT22;17097;50.916;5.344;2024-01-10T08:27:46;-1.50;99.90
30280;DHT22;17097;50.916;5.344;2024-01-10T08:30:11;-1.00;99.90
30280;DHT22;17097;50.916;5.344;2024-01-10T08:32:37;-0.60;99.90
30280;DHT22;17097;50.916;5.344;2024-01-10T08:35:08;-0.20;99.90
30280;DHT22;17097;50.916;5.344;2024-01-10T08:37:34;0.10;99.90
30280;DHT22;17097;50.916;5.344;2024-01-10T08:40:03;0.50;99.90
30280;DHT22;17097;50.916;5.344;2024-01-10T08:42:33;0.80;99.90
30280;DHT22;17097;50.916;5.344;2024-01-10T08:44:59;1.00;99.90
30280;DHT22;17097;50.916;5.344;2024-01-10T08:47:25;1.30;99.90
30280;DHT22;17097;50.916;5.344;2024-01-10T08:49:50;1.40;99.90
30280;DHT22;17097;50.916;5.344;2024-01-10T08:52:16;1.50;99.90
30280;DHT22;17097;50.916;5.344;2024-01-10T08:54:42;1.70;99.90
30280;DHT22;17097;50.916;5.344;2024-01-10T08:57:10;1.80;99.90
30280;DHT22;17097;50.916;5.344;2024-01-10T08:59:36;2.20;99.90
30280;DHT22;17097;50.916;5.344;2024-01-10T09:02:02;2.90;99.90
30280;DHT22;17097;50.916;5.344;2024-01-10T09:04:28;3.60;98.20
30280;DHT22;17097;50.916;5.344;2024-01-10T09:06:54;4.30;95.30
30280;DHT22;17097;50.916;5.344;2024-01-10T09:09:20;4.80;92.90
30280;DHT22;17097;50.916;5.344;2024-01-10T09:11:47;5.30;91.60
30280;DHT22;17097;50.916;5.344;2024-01-10T09:14:14;5.90;87.70
30280;DHT22;17097;50.916;5.344;2024-01-10T09:16:39;6.30;84.10
30280;DHT22;17097;50.916;5.344;2024-01-10T09:19:08;6.40;81.00
30280;DHT22;17097;50.916;5.344;2024-01-10T09:21:37;6.80;79.80
30280;DHT22;17097;50.916;5.344;2024-01-10T09:24:05;7.20;76.20
30280;DHT22;17097;50.916;5.344;2024-01-10T09:26:34;7.60;74.20
30280;DHT22;17097;50.916;5.344;2024-01-10T09:29:00;8.10;71.50
30280;DHT22;17097;50.916;5.344;2024-01-10T09:31:25;8.30;70.10
30280;DHT22;17097;50.916;5.344;2024-01-10T09:33:51;8.70;66.60
30280;DHT22;17097;50.916;5.344;2024-01-10T09:36:17;9.00;66.50
30280;DHT22;17097;50.916;5.344;2024-01-10T09:38:43;8.80;63.70
30280;DHT22;17097;50.916;5.344;2024-01-10T09:41:11;8.90;63.40
30280;DHT22;17097;50.916;5.344;2024-01-10T09:43:40;9.20;63.30
30280;DHT22;17097;50.916;5.344;2024-01-10T09:46:07;9.20;61.90
30280;DHT22;17097;50.916;5.344;2024-01-10T09:48:33;9.20;61.60
30280;DHT22;17097;50.916;5.344;2024-01-10T09:50:59;9.40;61.40
30280;DHT22;17097;50.916;5.344;2024-01-10T09:53:31;9.40;60.80
30280;DHT22;17097;50.916;5.344;2024-01-10T09:56:00;9.90;59.40
30280;DHT22;17097;50.916;5.344;2024-01-10T09:58:29;10.40;57.70
30280;DHT22;17097;50.916;5.344;2024-01-10T10:00:55;11.10;56.00
30280;DHT22;17097;50.916;5.344;2024-01-10T10:03:22;12.00;54.20
30280;DHT22;17097;50.916;5.344;2024-01-10T10:05:49;12.90;52.00
30280;DHT22;17097;50.916;5.344;2024-01-10T10:08:14;13.60;49.50
30280;DHT22;17097;50.916;5.344;2024-01-10T10:10:41;14.00;46.90
30280;DHT22;17097;50.916;5.344;2024-01-10T10:13:10;14.70;46.50
30280;DHT22;17097;50.916;5.344;2024-01-10T10:15:40;15.40;44.00
30280;DHT22;17097;50.916;5.344;2024-01-10T10:18:06;16.00;43.10
30280;DHT22;17097;50.916;5.344;2024-01-10T10:20:31;16.50;40.70
30280;DHT22;17097;50.916;5.344;2024-01-10T10:25:30;16.30;39.90
30280;DHT22;17097;50.916;5.344;2024-01-10T10:27:57;15.90;39.90
30280;DHT22;17097;50.916;5.344;2024-01-10T10:30:23;15.60;40.40
30280;DHT22;17097;50.916;5.344;2024-01-10T10:32:49;15.20;40.30
30280;DHT22;17097;50.916;5.344;2024-01-10T10:35:14;14.30;40.50
30280;DHT22;17097;50.916;5.344;2024-01-10T10:37:40;13.20;41.70
30280;DHT22;17097;50.916;5.344;2024-01-10T10:40:05;12.50;42.80
30280;DHT22;17097;50.916;5.344;2024-01-10T10:42:34;11.60;44.30
30280;DHT22;17097;50.916;5.344;2024-01-10T10:45:02;11.00;45.70
30280;DHT22;17097;50.916;5.344;2024-01-10T10:47:32;10.40;46.10
30280;DHT22;17097;50.916;5.344;2024-01-10T10:50:00;9.70;47.90
30280;DHT22;17097;50.916;5.344;2024-01-10T10:52:28;9.20;49.00
30280;DHT22;17097;50.916;5.344;2024-01-10T10:54:55;8.70;50.00
30280;DHT22;17097;50.916;5.344;2024-01-10T10:57:22;8.50;51.00
30280;DHT22;17097;50.916;5.344;2024-01-10T10:59:50;7.90;51.50
30280;DHT22;17097;50.916;5.344;2024-01-10T11:02:18;7.60;52.60
30280;DHT22;17097;50.916;5.344;2024-01-10T11:04:48;7.40;53.10
30280;DHT22;17097;50.916;5.344;2024-01-10T11:07:14;7.10;54.10
30280;DHT22;17097;50.916;5.344;2024-01-10T11:09:40;6.90;55.00
30280;DHT22;17097;50.916;5.344;2024-01-10T11:22:48;6.30;56.80
30280;DHT22;17097;50.916;5.344;2024-01-10T11:25:17;6.40;57.80
30280;DHT22;17097;50.916;5.344;2024-01-10T11:27:43;6.60;58.70
30280;DHT22;17097;50.916;5.344;2024-01-10T11:30:10;6.70;57.60
30280;DHT22;17097;50.916;5.344;2024-01-10T11:32:36;7.20;57.90
30280;DHT22;17097;50.916;5.344;2024-01-10T11:35:10;8.00;56.00
30280;DHT22;17097;50.916;5.344;2024-01-10T11:37:43;8.50;54.10
30280;DHT22;17097;50.916;5.344;2024-01-10T11:40:09;9.00;53.30
30280;DHT22;17097;50.916;5.344;2024-01-10T11:42:41;9.30;52.10
30280;DHT22;17097;50.916;5.344;2024-01-10T11:45:07;9.70;51.20
30280;DHT22;17097;50.916;5.344;2024-01-10T11:47:35;9.80;50.30
30280;DHT22;17097;50.916;5.344;2024-01-10T11:50:03;9.70;51.00
30280;DHT22;17097;50.916;5.344;2024-01-10T11:52:33;9.60;51.10
30280;DHT22;17097;50.916;5.344;2024-01-10T11:55:02;9.60;50.50
30280;DHT22;17097;50.916;5.344;2024-01-10T11:57:32;9.30;50.40
30280;DHT22;17097;50.916;5.344;2024-01-10T11:59:58;8.80;50.40
30280;DHT22;17097;50.916;5.344;2024-01-10T12:02:29;8.70;52.40
30280;DHT22;17097;50.916;5.344;2024-01-10T12:04:54;8.40;52.90
30280;DHT22;17097;50.916;5.344;2024-01-10T12:07:22;8.30;53.40
30280;DHT22;17097;50.916;5.344;2024-01-10T12:09:49;8.30;52.50
30280;DHT22;17097;50.916;5.344;2024-01-10T12:12:17;8.20;53.20
30280;DHT22;17097;50.916;5.344;2024-01-10T12:14:43;8.00;54.00
30280;DHT22;17097;50.916;5.344;2024-01-10T12:17:09;8.10;53.60
30280;DHT22;17097;50.916;5.344;2024-01-10T12:19:35;7.80;54.70
30280;DHT22;17097;50.916;5.344;2024-01-10T12:22:02;7.90;54.80
30280;DHT22;17097;50.916;5.344;2024-01-10T12:24:30;7.80;54.20
30280;DHT22;17097;50.916;5.344;2024-01-10T12:26:56;7.80;54.90
30280;DHT22;17097;50.916;5.344;2024-01-10T12:29:24;8.00;54.50
30280;DHT22;17097;50.916;5.344;2024-01-10T12:31:51;8.40;53.80
30280;DHT22;17097;50.916;5.344;2024-01-10T12:34:19;8.70;53.20
30280;DHT22;17097;50.916;5.344;2024-01-10T12:36:47;9.10;53.50
30280;DHT22;17097;50.916;5.344;2024-01-10T12:39:13;9.40;52.30
30280;DHT22;17097;50.916;5.344;2024-01-10T12:41:40;9.80;52.40
30280;DHT22;17097;50.916;5.344;2024-01-10T12:44:08;9.90;51.50
30280;DHT22;17097;50.916;5.344;2024-01-10T12:46:35;9.80;50.60
30280;DHT22;17097;50.916;5.344;2024-01-10T12:49:04;9.70;50.60
30280;DHT22;17097;50.916;5.344;2024-01-10T12:51:30;9.60;50.50
30280;DHT22;17097;50.916;5.344;2024-01-10T12:53:57;9.50;51.10
30280;DHT22;17097;50.916;5.344;2024-01-10T12:56:28;8.90;51.50
30280;DHT22;17097;50.916;5.344;2024-01-10T12:58:54;8.70;52.40
30280;DHT22;17097;50.916;5.344;2024-01-10T13:01:23;8.70;53.00
30280;DHT22;17097;50.916;5.344;2024-01-10T13:03:51;8.50;53.00
30280;DHT22;17097;50.916;5.344;2024-01-10T13:06:17;8.40;53.00
30280;DHT22;17097;50.916;5.344;2024-01-10T13:08:44;8.20;53.70
30280;DHT22;17097;50.916;5.344;2024-01-10T13:11:10;8.30;54.40
30280;DHT22;17097;50.916;5.344;2024-01-10T13:13:36;8.20;53.90
30280;DHT22;17097;50.916;5.344;2024-01-10T13:16:01;8.10;54.10
30280;DHT22;17097;50.916;5.344;2024-01-10T13:18:29;8.50;73.60
30280;DHT22;17097;50.916;5.344;2024-01-10T13:20:55;8.50;60.00
30280;DHT22;17097;50.916;5.344;2024-01-10T13:23:21;8.40;58.70
30280;DHT22;17097;50.916;5.344;2024-01-10T13:25:52;8.40;58.60
30280;DHT22;17097;50.916;5.344;2024-01-10T13:28:20;8.30;59.00
30280;DHT22;17097;50.916;5.344;2024-01-10T13:30:46;8.10;59.10
30280;DHT22;17097;50.916;5.344;2024-01-10T13:33:12;8.10;58.20
30280;DHT22;17097;50.916;5.344;2024-01-10T13:35:37;7.70;58.70
30280;DHT22;17097;50.916;5.344;2024-01-10T13:38:03;7.60;59.40
30280;DHT22;17097;50.916;5.344;2024-01-10T13:40:29;7.70;60.00
30280;DHT22;17097;50.916;5.344;2024-01-10T13:42:59;7.60;60.00
30280;DHT22;17097;50.916;5.344;2024-01-10T13:45:27;7.60;59.00
30280;DHT22;17097;50.916;5.344;2024-01-10T13:47:53;7.70;59.40
30280;DHT22;17097;50.916;5.344;2024-01-10T13:50:18;7.60;60.20
30280;DHT22;17097;50.916;5.344;2024-01-10T13:52:44;7.40;61.10
30280;DHT22;17097;50.916;5.344;2024-01-10T13:55:09;7.30;60.00
30280;DHT22;17097;50.916;5.344;2024-01-10T13:57:35;7.30;60.70
30280;DHT22;17097;50.916;5.344;2024-01-10T14:00:01;7.10;60.80
30280;DHT22;17097;50.916;5.344;2024-01-10T14:02:27;6.90;60.90
30280;DHT22;17097;50.916;5.344;2024-01-10T14:04:53;6.70;62.90
30280;DHT22;17097;50.916;5.344;2024-01-10T14:07:24;6.50;63.50
30280;DHT22;17097;50.916;5.344;2024-01-10T14:09:50;6.40;63.50
30280;DHT22;17097;50.916;5.344;2024-01-10T14:12:16;6.30;62.70
30280;DHT22;17097;50.916;5.344;2024-01-10T14:14:43;6.20;63.60
30280;DHT22;17097;50.916;5.344;2024-01-10T14:17:11;6.00;64.70
30280;DHT22;17097;50.916;5.344;2024-01-10T14:19:37;5.70;65.90
30280;DHT22;17097;50.916;5.344;2024-01-10T14:22:02;5.60;67.30
30280;DHT22;17097;50.916;5.344;2024-01-10T14:24:28;5.40;67.90
30280;DHT22;17097;50.916;5.344;2024-01-10T14:26:53;5.30;69.10
30280;DHT22;17097;50.916;5.344;2024-01-10T14:29:20;5.20;69.20
30280;DHT22;17097;50.916;5.344;2024-01-10T14:31:47;5.10;69.70
30280;DHT22;17097;50.916;5.344;2024-01-10T14:34:14;4.90;71.70
30280;DHT22;17097;50.916;5.344;2024-01-10T14:36:40;4.80;73.10
30280;DHT22;17097;50.916;5.344;2024-01-10T14:39:05;4.70;73.60
30280;DHT22;17097;50.916;5.344;2024-01-10T14:41:38;4.70;75.00
30280;DHT22;17097;50.916;5.344;2024-01-10T14:44:03;4.60;75.40
30280;DHT22;17097;50.916;5.344;2024-01-10T14:46:29;4.50;76.60
30280;DHT22;17097;50.916;5.344;2024-01-10T14:48:54;4.50;76.70
30280;DHT22;17097;50.916;5.344;2024-01-10T14:51:20;4.50;76.90
30280;DHT22;17097;50.916;5.344;2024-01-10T14:53:45;4.60;77.20
30280;DHT22;17097;50.916;5.344;2024-01-10T14:56:11;4.70;76.50
30280;DHT22;17097;50.916;5.344;2024-01-10T14:58:39;4.70;76.60
30280;DHT22;17097;50.916;5.344;2024-01-10T15:01:11;4.70;77.10
30280;DHT22;17097;50.916;5.344;2024-01-10T15:03:36;4.50;78.20
30280;DHT22;17097;50.916;5.344;2024-01-10T15:06:05;4.40;88.70
30280;DHT22;17097;50.916;5.344;2024-01-10T15:08:31;4.20;82.30
30280;DHT22;17097;50.916;5.344;2024-01-10T15:10:59;4.10;81.40
30280;DHT22;17097;50.916;5.344;2024-01-10T15:13:24;4.10;81.60
30280;DHT22;17097;50.916;5.344;2024-01-10T15:15:50;3.90;82.90
30280;DHT22;17097;50.916;5.344;2024-01-10T15:18:15;3.80;83.00
30280;DHT22;17097;50.916;5.344;2024-01-10T15:20:41;3.80;83.20
30280;DHT22;17097;50.916;5.344;2024-01-10T15:23:08;3.70;84.20
30280;DHT22;17097;50.916;5.344;2024-01-10T15:25:34;3.70;85.20
30280;DHT22;17097;50.916;5.344;2024-01-10T15:27:59;3.70;84.80
30280;DHT22;17097;50.916;5.344;2024-01-10T15:30:26;3.70;85.30
30280;DHT22;17097;50.916;5.344;2024-01-10T15:32:52;3.70;85.00
30280;DHT22;17097;50.916;5.344;2024-01-10T15:35:17;3.60;86.80
30280;DHT22;17097;50.916;5.344;2024-01-10T15:37:46;3.60;87.30
30280;DHT22;17097;50.916;5.344;2024-01-10T15:40:11;3.40;88.40
30280;DHT22;17097;50.916;5.344;2024-01-10T15:42:37;3.20;90.00
30280;DHT22;17097;50.916;5.344;2024-01-10T15:45:07;3.20;90.40
30280;DHT22;17097;50.916;5.344;2024-01-10T15:47:32;3.10;91.00